createdAt,value
2017-05-31T00:00:40.468Z,43.09
2017-05-31T00:01:40.753Z,43.09
2017-05-31T00:02:40.530Z,43.09
2017-05-31T00:03:40.558Z,42.99
2017-05-31T00:04:40.592Z,42.99
2017-05-31T00:05:40.621Z,42.99
2017-05-31T00:06:40.540Z,42.99
2017-05-31T00:07:40.371Z,42.99
2017-05-31T00:08:40.399Z,42.99
2017-05-31T00:09:40.742Z,42.99
2017-05-31T00:10:40.776Z,43.29
2017-05-31T00:11:41.005Z,43.19
2017-05-31T00:12:40.520Z,43.29
2017-05-31T00:13:40.866Z,43.19
2017-05-31T00:14:40.901Z,43.09
2017-05-31T00:15:40.924Z,43.48
2017-05-31T00:16:40.645Z,43.29
2017-05-31T00:17:40.982Z,43.77
2017-05-31T00:18:41.017Z,43.67
2017-05-31T00:19:41.051Z,43.67
2017-05-31T00:20:41.072Z,43.58
2017-05-31T00:21:41.106Z,43.58
2017-05-31T00:22:41.138Z,43.48
2017-05-31T00:23:40.863Z,43.58
2017-05-31T00:24:41.200Z,43.67
2017-05-31T00:25:41.237Z,43.38
2017-05-31T00:26:41.261Z,43.58
2017-05-31T00:27:40.975Z,43.29
2017-05-31T00:28:41.012Z,43.09
2017-05-31T00:29:41.036Z,43.87
2017-05-31T00:30:41.377Z,43.87
2017-05-31T00:31:41.414Z,43.09
2017-05-31T00:32:41.442Z,42.9
2017-05-31T00:33:41.474Z,43.58
2017-05-31T00:34:41.503Z,43.29
2017-05-31T00:35:41.532Z,43.48
2017-05-31T00:36:41.558Z,43.48
2017-05-31T00:37:41.595Z,43.67
2017-05-31T00:38:41.622Z,43.77
2017-05-31T00:39:41.656Z,43.87
2017-05-31T00:40:41.381Z,43.67
2017-05-31T00:41:41.718Z,43.67
2017-05-31T00:42:41.744Z,43.77
2017-05-31T00:43:41.784Z,43.77
2017-05-31T00:44:41.817Z,43.58
2017-05-31T00:45:41.841Z,43.58
2017-05-31T00:46:41.865Z,43.58
2017-05-31T00:47:41.899Z,43.58
2017-05-31T00:48:41.615Z,43.67
2017-05-31T00:49:41.961Z,43.67
2017-05-31T00:50:41.985Z,43.87
2017-05-31T00:51:42.018Z,43.67
2017-05-31T00:52:41.735Z,43.67
2017-05-31T00:53:42.083Z,43.87
2017-05-31T00:54:42.112Z,43.87
2017-05-31T00:55:41.828Z,44.16
2017-05-31T00:56:41.861Z,44.26
2017-05-31T00:57:42.194Z,44.06
2017-05-31T00:58:41.924Z,44.06
2017-05-31T00:59:41.951Z,43.77
2017-05-31T01:00:42.292Z,43.87
2017-05-31T01:01:42.319Z,44.26
2017-05-31T01:02:42.351Z,44.35
2017-05-31T01:03:42.379Z,44.26
2017-05-31T01:04:42.412Z,44.16
2017-05-31T01:05:42.441Z,44.16
2017-05-31T01:06:42.165Z,43.96
2017-05-31T01:07:42.510Z,43.96
2017-05-31T01:08:42.536Z,44.26
2017-05-31T01:09:42.569Z,43.96
2017-05-31T01:10:42.593Z,44.16
2017-05-31T01:11:42.631Z,44.16
2017-05-31T01:12:42.659Z,44.26
2017-05-31T01:13:42.687Z,44.35
2017-05-31T01:14:42.401Z,44.35
2017-05-31T01:15:42.749Z,44.55
2017-05-31T01:16:42.466Z,44.55
2017-05-31T01:17:42.812Z,44.16
2017-05-31T01:18:42.843Z,44.16
2017-05-31T01:19:42.873Z,44.16
2017-05-31T01:20:42.902Z,44.24
2017-05-31T01:21:42.930Z,44.35
2017-05-31T01:22:42.650Z,44.26
2017-05-31T01:23:42.988Z,44.45
2017-05-31T01:24:43.026Z,44.65
2017-05-31T01:25:43.054Z,44.16
2017-05-31T01:26:43.083Z,44.04
2017-05-31T01:27:43.115Z,44.04
2017-05-31T01:28:43.147Z,44.06
2017-05-31T01:29:43.181Z,44.16
2017-05-31T01:30:43.205Z,44.43
2017-05-31T01:31:43.233Z,44.26
2017-05-31T01:32:43.263Z,44.06
2017-05-31T01:33:43.292Z,44.06
2017-05-31T01:34:43.010Z,44.14
2017-05-31T01:35:43.353Z,44.24
2017-05-31T01:36:43.387Z,44.04
2017-05-31T01:37:43.415Z,44.14
2017-05-31T01:38:43.448Z,44.14
2017-05-31T01:39:43.477Z,44.35
2017-05-31T01:40:43.506Z,44.43
2017-05-31T01:41:43.539Z,44.43
2017-05-31T01:42:43.568Z,44.04
2017-05-31T01:43:43.600Z,44.33
2017-05-31T01:44:43.313Z,44.16
2017-05-31T01:45:43.654Z,44.43
2017-05-31T01:46:43.686Z,44.62
2017-05-31T01:47:43.719Z,44.62
2017-05-31T01:48:43.748Z,44.43
2017-05-31T01:49:43.781Z,45.01
2017-05-31T01:50:43.810Z,44.82
2017-05-31T01:51:43.844Z,44.84
2017-05-31T01:52:43.872Z,44.82
2017-05-31T01:53:43.901Z,44.82
2017-05-31T01:54:43.928Z,44.62
2017-05-31T01:55:43.957Z,44.65
2017-05-31T01:56:43.991Z,44.72
2017-05-31T01:57:44.023Z,44.62
2017-05-31T01:58:44.055Z,44.92
2017-05-31T01:59:44.072Z,44.53
2017-05-31T02:00:44.114Z,44.62
2017-05-31T02:01:44.144Z,44.53
2017-05-31T02:02:44.167Z,44.72
2017-05-31T02:03:43.892Z,44.53
2017-05-31T02:04:43.922Z,44.53
2017-05-31T02:05:44.267Z,44.53
2017-05-31T02:06:44.294Z,44.72
2017-05-31T02:07:44.325Z,44.82
2017-05-31T02:08:44.041Z,44.43
2017-05-31T02:09:44.390Z,44.53
2017-05-31T02:10:44.414Z,44.53
2017-05-31T02:11:44.447Z,44.82
2017-05-31T02:12:44.673Z,44.92
2017-05-31T02:13:44.564Z,45.11
2017-05-31T02:14:44.226Z,45.21
2017-05-31T02:15:44.562Z,44.92
2017-05-31T02:16:44.595Z,45.21
2017-05-31T02:17:44.824Z,45.21
2017-05-31T02:18:44.345Z,45.21
2017-05-31T02:19:44.685Z,45.21
2017-05-31T02:20:44.720Z,45.31
2017-05-31T02:21:44.751Z,45.01
2017-05-31T02:22:44.976Z,45.01
2017-05-31T02:23:44.496Z,45.21
2017-05-31T02:24:44.842Z,45.11
2017-05-31T02:25:44.871Z,45.11
2017-05-31T02:26:44.900Z,45.11
2017-05-31T02:27:45.186Z,45.01
2017-05-31T02:28:44.962Z,45.21
2017-05-31T02:29:44.988Z,44.92
2017-05-31T02:30:45.022Z,44.92
2017-05-31T02:31:45.052Z,45.01
2017-05-31T02:32:44.968Z,45.11
2017-05-31T02:33:45.116Z,45.01
2017-05-31T02:34:45.138Z,45.21
2017-05-31T02:35:45.174Z,44.72
2017-05-31T02:36:45.204Z,45.21
2017-05-31T02:37:45.427Z,44.72
2017-05-31T02:38:45.261Z,45.11
2017-05-31T02:39:45.302Z,44.92
2017-05-31T02:40:45.015Z,44.92
2017-05-31T02:41:45.356Z,45.01
2017-05-31T02:42:45.636Z,44.92
2017-05-31T02:43:45.409Z,44.92
2017-05-31T02:44:45.130Z,44.92
2017-05-31T02:45:45.167Z,45.11
2017-05-31T02:46:45.195Z,45.11
2017-05-31T02:47:45.735Z,45.11
2017-05-31T02:48:45.254Z,44.82
2017-05-31T02:49:45.586Z,44.72
2017-05-31T02:50:45.618Z,45.4
2017-05-31T02:51:45.344Z,44.82
2017-05-31T02:52:45.883Z,45.4
2017-05-31T02:53:45.713Z,45.4
2017-05-31T02:54:45.434Z,45.4
2017-05-31T02:55:45.774Z,45.31
2017-05-31T02:56:45.803Z,45.5
2017-05-31T02:57:45.526Z,45.69
2017-05-31T02:58:45.865Z,45.5
2017-05-31T02:59:45.586Z,45.6
2017-05-31T03:00:45.930Z,45.69
2017-05-31T03:01:45.952Z,45.6
2017-05-31T03:02:45.986Z,45.01
2017-05-31T03:03:46.021Z,45.4
2017-05-31T03:04:46.051Z,45.4
2017-05-31T03:05:45.770Z,45.21
2017-05-31T03:06:46.104Z,45.5
2017-05-31T03:07:46.133Z,45.11
2017-05-31T03:08:46.170Z,45.6
2017-05-31T03:09:46.194Z,45.09
2017-05-31T03:10:45.910Z,45.6
2017-05-31T03:11:46.261Z,45.69
2017-05-31T03:12:46.289Z,45.5
2017-05-31T03:13:46.006Z,45.5
2017-05-31T03:14:46.346Z,45.5
2017-05-31T03:15:46.067Z,45.6
2017-05-31T03:16:46.407Z,45.5
2017-05-31T03:17:46.130Z,45.6
2017-05-31T03:18:46.469Z,45.4
2017-05-31T03:19:46.503Z,45.5
2017-05-31T03:20:46.535Z,45.69
2017-05-31T03:21:46.244Z,45.4
2017-05-31T03:22:46.589Z,45.69
2017-05-31T03:23:46.618Z,45.6
2017-05-31T03:24:46.650Z,45.5
2017-05-31T03:25:46.676Z,45.5
2017-05-31T03:26:46.708Z,45.6
2017-05-31T03:27:46.749Z,45.4
2017-05-31T03:28:46.453Z,45.6
2017-05-31T03:29:46.798Z,45.5
2017-05-31T03:30:46.830Z,45.6
2017-05-31T03:31:46.859Z,45.4
2017-05-31T03:32:46.890Z,45.4
2017-05-31T03:33:46.918Z,45.5
2017-05-31T03:34:46.634Z,45.6
2017-05-31T03:35:46.668Z,45.5
2017-05-31T03:36:47.008Z,45.6
2017-05-31T03:37:47.041Z,45.69
2017-05-31T03:38:47.070Z,45.6
2017-05-31T03:39:47.107Z,45.5
2017-05-31T03:40:47.131Z,45.69
2017-05-31T03:41:47.157Z,45.6
2017-05-31T03:42:47.186Z,45.48
2017-05-31T03:43:47.223Z,45.4
2017-05-31T03:44:47.252Z,45.98
2017-05-31T03:45:47.284Z,45.69
2017-05-31T03:46:47.312Z,45.67
2017-05-31T03:47:47.337Z,45.89
2017-05-31T03:48:47.370Z,45.67
2017-05-31T03:49:47.401Z,45.48
2017-05-31T03:50:47.427Z,45.97
2017-05-31T03:51:47.461Z,45.89
2017-05-31T03:52:47.496Z,45.97
2017-05-31T03:53:47.523Z,45.57
2017-05-31T03:54:47.239Z,45.67
2017-05-31T03:55:47.584Z,45.67
2017-05-31T03:56:47.609Z,45.57
2017-05-31T03:57:47.645Z,45.4
2017-05-31T03:58:47.877Z,45.48
2017-05-31T03:59:47.392Z,45.48
2017-05-31T04:00:47.736Z,45.48
2017-05-31T04:01:47.765Z,45.57
2017-05-31T04:02:47.794Z,45.48
2017-05-31T04:03:48.017Z,45.57
2017-05-31T04:04:47.853Z,45.57
2017-05-31T04:05:47.571Z,45.28
2017-05-31T04:06:47.912Z,45.09
2017-05-31T04:07:47.945Z,45.18
2017-05-31T04:08:47.856Z,45.67
2017-05-31T04:09:48.007Z,45.38
2017-05-31T04:10:48.032Z,45.38
2017-05-31T04:11:48.069Z,45.38
2017-05-31T04:12:48.093Z,44.89
2017-05-31T04:13:48.002Z,44.6
2017-05-31T04:14:48.156Z,44.99
2017-05-31T04:15:48.188Z,45.09
2017-05-31T04:16:48.211Z,44.89
2017-05-31T04:17:48.238Z,44.99
2017-05-31T04:18:48.468Z,45.09
2017-05-31T04:19:48.303Z,45.18
2017-05-31T04:20:48.020Z,45.18
2017-05-31T04:21:48.367Z,45.09
2017-05-31T04:22:48.393Z,44.99
2017-05-31T04:23:48.311Z,45.09
2017-05-31T04:24:48.451Z,45.28
2017-05-31T04:25:48.485Z,45.18
2017-05-31T04:26:48.198Z,44.89
2017-05-31T04:27:48.545Z,45.18
2017-05-31T04:28:48.775Z,44.79
2017-05-31T04:29:48.603Z,44.89
2017-05-31T04:30:48.632Z,45.09
2017-05-31T04:31:48.666Z,44.99
2017-05-31T04:32:48.690Z,44.6
2017-05-31T04:33:48.922Z,44.6
2017-05-31T04:34:48.756Z,44.89
2017-05-31T04:35:48.469Z,44.51
2017-05-31T04:36:48.813Z,44.51
2017-05-31T04:37:48.841Z,44.41
2017-05-31T04:38:48.562Z,44.6
2017-05-31T04:39:48.589Z,44.6
2017-05-31T04:40:48.933Z,44.41
2017-05-31T04:41:48.653Z,44.7
2017-05-31T04:42:48.990Z,44.7
2017-05-31T04:43:49.023Z,44.6
2017-05-31T04:44:49.052Z,44.51
2017-05-31T04:45:50.176Z,44.51
2017-05-31T04:46:49.114Z,44.6
2017-05-31T04:47:48.826Z,44.6
2017-05-31T04:48:49.176Z,44.51
2017-05-31T04:49:49.199Z,44.6
2017-05-31T04:50:48.920Z,44.41
2017-05-31T04:51:49.258Z,44.51
2017-05-31T04:52:49.287Z,44.89
2017-05-31T04:53:49.007Z,44.79
2017-05-31T04:54:49.351Z,44.7
2017-05-31T04:55:49.385Z,44.6
2017-05-31T04:56:49.409Z,44.6
2017-05-31T04:57:49.443Z,44.6
2017-05-31T04:58:49.164Z,44.7
2017-05-31T04:59:49.504Z,44.79
2017-05-31T05:00:49.529Z,44.89
2017-05-31T05:01:49.249Z,44.89
2017-05-31T05:02:49.586Z,44.7
2017-05-31T05:03:49.623Z,44.89
2017-05-31T05:04:49.648Z,44.79
2017-05-31T05:05:49.370Z,44.51
2017-05-31T05:06:49.714Z,44.7
2017-05-31T05:07:49.742Z,44.7
2017-05-31T05:08:49.778Z,44.41
2017-05-31T05:09:49.805Z,44.79
2017-05-31T05:10:49.838Z,44.79
2017-05-31T05:11:49.863Z,44.79
2017-05-31T05:12:49.582Z,44.7
2017-05-31T05:13:49.978Z,44.89
2017-05-31T05:14:49.953Z,44.6
2017-05-31T05:15:49.981Z,44.7
2017-05-31T05:16:50.014Z,44.6
2017-05-31T05:17:50.042Z,44.12
2017-05-31T05:18:50.072Z,44.41
2017-05-31T05:19:50.105Z,44.12
2017-05-31T05:20:50.129Z,44.41
2017-05-31T05:21:49.850Z,44.21
2017-05-31T05:22:50.190Z,44.41
2017-05-31T05:23:50.228Z,44.51
2017-05-31T05:24:50.252Z,44.21
2017-05-31T05:25:50.278Z,44.02
2017-05-31T05:26:50.000Z,44.12
2017-05-31T05:27:50.343Z,43.92
2017-05-31T05:28:50.370Z,43.92
2017-05-31T05:29:50.405Z,44.12
2017-05-31T05:30:50.434Z,44.02
2017-05-31T05:31:50.462Z,44.21
2017-05-31T05:32:50.490Z,44.12
2017-05-31T05:33:50.524Z,43.34
2017-05-31T05:34:50.553Z,43.44
2017-05-31T05:35:50.581Z,43.54
2017-05-31T05:36:50.651Z,43.63
2017-05-31T05:37:50.643Z,44.02
2017-05-31T05:38:50.376Z,44.21
2017-05-31T05:39:50.702Z,43.73
2017-05-31T05:40:50.734Z,43.82
2017-05-31T05:41:50.768Z,43.82
2017-05-31T05:42:50.787Z,43.73
2017-05-31T05:43:50.511Z,43.63
2017-05-31T05:44:50.540Z,43.82
2017-05-31T05:45:50.878Z,43.63
2017-05-31T05:46:50.598Z,43.54
2017-05-31T05:47:50.626Z,43.54
2017-05-31T05:48:50.972Z,43.44
2017-05-31T05:49:50.689Z,43.63
2017-05-31T05:50:51.029Z,43.44
2017-05-31T05:51:51.063Z,43.54
2017-05-31T05:52:51.091Z,43.54
2017-05-31T05:53:51.120Z,43.63
2017-05-31T05:54:50.836Z,43.73
2017-05-31T05:55:51.178Z,43.63
2017-05-31T05:56:51.206Z,43.82
2017-05-31T05:57:51.243Z,43.73
2017-05-31T05:58:51.271Z,43.63
2017-05-31T05:59:50.997Z,43.63
2017-05-31T06:00:51.018Z,43.54
2017-05-31T06:01:51.366Z,43.63
2017-05-31T06:02:51.395Z,43.63
2017-05-31T06:03:51.419Z,43.63
2017-05-31T06:04:51.454Z,43.44
2017-05-31T06:05:51.477Z,43.63
2017-05-31T06:06:51.510Z,43.54
2017-05-31T06:07:51.536Z,43.63
2017-05-31T06:08:51.573Z,43.82
2017-05-31T06:09:51.598Z,43.63
2017-05-31T06:10:51.631Z,43.63
2017-05-31T06:11:51.663Z,43.34
2017-05-31T06:12:51.688Z,43.34
2017-05-31T06:13:51.718Z,43.34
2017-05-31T06:14:51.437Z,43.05
2017-05-31T06:15:51.782Z,43.05
2017-05-31T06:16:51.812Z,43.34
2017-05-31T06:17:51.520Z,43.24
2017-05-31T06:18:51.873Z,43.05
2017-05-31T06:19:51.897Z,43.15
2017-05-31T06:20:51.615Z,43.34
2017-05-31T06:21:51.959Z,43.15
2017-05-31T06:22:51.996Z,43.34
2017-05-31T06:23:51.703Z,43.54
2017-05-31T06:24:52.049Z,42.85
2017-05-31T06:25:52.077Z,42.95
2017-05-31T06:26:52.112Z,42.76
2017-05-31T06:27:52.142Z,43.63
2017-05-31T06:28:52.169Z,43.44
2017-05-31T06:29:52.201Z,43.34
2017-05-31T06:30:51.919Z,42.95
2017-05-31T06:31:51.949Z,42.66
2017-05-31T06:32:52.284Z,42.18
2017-05-31T06:33:52.320Z,41.98
2017-05-31T06:34:52.349Z,41.88
2017-05-31T06:35:52.378Z,41.78
2017-05-31T06:36:52.416Z,41.98
2017-05-31T06:37:52.440Z,41.49
2017-05-31T06:38:52.156Z,41.78
2017-05-31T06:39:52.498Z,42.56
2017-05-31T06:40:52.536Z,42.46
2017-05-31T06:41:52.552Z,42.66
2017-05-31T06:42:52.592Z,42.85
2017-05-31T06:43:52.625Z,42.66
2017-05-31T06:44:52.652Z,42.46
2017-05-31T06:45:52.674Z,42.46
2017-05-31T06:46:52.706Z,42.46
2017-05-31T06:47:52.424Z,42.46
2017-05-31T06:48:52.765Z,42.46
2017-05-31T06:49:52.801Z,42.95
2017-05-31T06:50:52.832Z,42.46
2017-05-31T06:51:52.859Z,42.46
2017-05-31T06:52:52.888Z,42.76
2017-05-31T06:53:52.920Z,42.85
2017-05-31T06:54:52.637Z,42.76
2017-05-31T06:55:53.039Z,42.85
2017-05-31T06:56:53.011Z,42.85
2017-05-31T06:57:52.727Z,43.05
2017-05-31T06:58:53.064Z,43.05
2017-05-31T06:59:53.098Z,43.15
2017-05-31T07:00:53.130Z,43.24
2017-05-31T07:01:53.160Z,42.85
2017-05-31T07:02:53.187Z,42.95
2017-05-31T07:03:53.216Z,43.05
2017-05-31T07:04:53.449Z,42.76
2017-05-31T07:05:53.274Z,42.46
2017-05-31T07:06:53.312Z,42.76
2017-05-31T07:07:53.341Z,42.27
2017-05-31T07:08:53.366Z,42.46
2017-05-31T07:09:53.649Z,42.85
2017-05-31T07:10:53.431Z,42.56
2017-05-31T07:11:53.459Z,42.46
2017-05-31T07:12:53.176Z,42.56
2017-05-31T07:13:53.521Z,42.85
2017-05-31T07:14:53.434Z,42.85
2017-05-31T07:15:53.582Z,42.85
2017-05-31T07:16:53.605Z,42.56
2017-05-31T07:17:53.632Z,42.76
2017-05-31T07:18:53.666Z,42.56
2017-05-31T07:19:53.898Z,42.66
2017-05-31T07:20:53.729Z,42.56
2017-05-31T07:21:53.760Z,42.46
2017-05-31T07:22:53.477Z,42.76
2017-05-31T07:23:53.825Z,42.36
2017-05-31T07:24:54.050Z,42.76
2017-05-31T07:25:53.564Z,42.08
2017-05-31T07:26:53.595Z,41.98
2017-05-31T07:27:53.941Z,42.27
2017-05-31T07:28:53.969Z,42.27
2017-05-31T07:29:54.198Z,42.46
2017-05-31T07:30:54.028Z,42.27
2017-05-31T07:31:54.063Z,41.98
2017-05-31T07:32:54.093Z,41.98
2017-05-31T07:33:54.121Z,41.69
2017-05-31T07:34:54.349Z,41.49
2017-05-31T07:35:54.171Z,41.69
2017-05-31T07:36:54.203Z,41.49
2017-05-31T07:37:54.236Z,41.49
2017-05-31T07:38:53.954Z,41.39
2017-05-31T07:39:54.498Z,40.91
2017-05-31T07:40:54.340Z,41.3
2017-05-31T07:41:54.361Z,41.01
2017-05-31T07:42:54.390Z,41.1
2017-05-31T07:43:54.105Z,41.78
2017-05-31T07:44:54.650Z,41.78
2017-05-31T07:45:54.479Z,41.49
2017-05-31T07:46:54.509Z,41.59
2017-05-31T07:47:54.541Z,41.69
2017-05-31T07:48:54.575Z,41.69
2017-05-31T07:49:54.798Z,41.3
2017-05-31T07:50:54.628Z,41.78
2017-05-31T07:51:54.348Z,41.3
2017-05-31T07:52:54.689Z,41.3
2017-05-31T07:53:54.710Z,41.2
2017-05-31T07:54:55.002Z,41.3
2017-05-31T07:55:54.480Z,41.59
2017-05-31T07:56:54.492Z,41.49
2017-05-31T07:57:54.836Z,41.88
2017-05-31T07:58:54.869Z,41.78
2017-05-31T07:59:55.142Z,41.69
2017-05-31T08:00:54.927Z,41.69
2017-05-31T08:01:54.960Z,41.61
2017-05-31T08:02:54.985Z,41.78
2017-05-31T08:03:55.013Z,41.49
2017-05-31T08:04:55.246Z,41.78
2017-05-31T08:05:55.126Z,41.78
2017-05-31T08:06:55.108Z,41.2
2017-05-31T08:07:55.139Z,41.59
2017-05-31T08:08:55.173Z,41.3
2017-05-31T08:09:55.398Z,41.3
2017-05-31T08:10:55.227Z,41.1
2017-05-31T08:11:55.264Z,41.3
2017-05-31T08:12:54.972Z,41.3
2017-05-31T08:13:55.004Z,41.3
2017-05-31T08:14:55.547Z,41.01
2017-05-31T08:15:55.380Z,40.93
2017-05-31T08:16:55.408Z,40.81
2017-05-31T08:17:55.445Z,41.39
2017-05-31T08:18:55.157Z,41.01
2017-05-31T08:19:55.381Z,41.3
2017-05-31T08:20:55.212Z,41.01
2017-05-31T08:21:55.244Z,41.01
2017-05-31T08:22:55.592Z,41.3
2017-05-31T08:23:55.618Z,41.2
2017-05-31T08:24:55.850Z,41.2
2017-05-31T08:25:55.678Z,40.93
2017-05-31T08:26:55.395Z,40.93
2017-05-31T08:27:55.736Z,40.42
2017-05-31T08:28:55.771Z,40.23
2017-05-31T08:29:55.998Z,40.33
2017-05-31T08:30:55.511Z,40.25
2017-05-31T08:31:55.860Z,40.13
2017-05-31T08:32:55.888Z,40.03
2017-05-31T08:33:55.628Z,40.23
2017-05-31T08:34:56.150Z,39.94
2017-05-31T08:35:55.987Z,40.42
2017-05-31T08:36:56.009Z,40.13
2017-05-31T08:37:56.038Z,40.06
2017-05-31T08:38:56.070Z,40.06
2017-05-31T08:39:56.294Z,40.33
2017-05-31T08:40:56.134Z,40.64
2017-05-31T08:41:56.160Z,41.03
2017-05-31T08:42:55.874Z,40.33
2017-05-31T08:43:56.217Z,40.73
2017-05-31T08:44:56.450Z,40.44
2017-05-31T08:45:55.968Z,40.44
2017-05-31T08:46:56.304Z,40.54
2017-05-31T08:47:56.026Z,39.96
2017-05-31T08:48:56.373Z,40.34
2017-05-31T08:49:56.602Z,39.96
2017-05-31T08:50:56.427Z,39.96
2017-05-31T08:51:56.453Z,39.96
2017-05-31T08:52:56.488Z,40.25
2017-05-31T08:53:56.210Z,40.15
2017-05-31T08:54:56.794Z,40.15
2017-05-31T08:55:56.580Z,40.06
2017-05-31T08:56:56.608Z,40.34
2017-05-31T08:57:56.641Z,40.15
2017-05-31T08:58:56.670Z,40.25
2017-05-31T08:59:56.949Z,40.06
2017-05-31T09:00:56.729Z,39.96
2017-05-31T09:01:56.448Z,39.76
2017-05-31T09:02:56.788Z,39.37
2017-05-31T09:03:56.822Z,39.67
2017-05-31T09:04:56.852Z,39.08
2017-05-31T09:05:56.879Z,39.67
2017-05-31T09:06:56.913Z,40.34
2017-05-31T09:07:56.953Z,39.76
2017-05-31T09:08:56.974Z,40.44
2017-05-31T09:09:57.000Z,40.34
2017-05-31T09:10:56.727Z,40.34
2017-05-31T09:11:57.061Z,39.96
2017-05-31T09:12:57.089Z,39.47
2017-05-31T09:13:56.810Z,39.67
2017-05-31T09:14:56.837Z,39.57
2017-05-31T09:15:57.193Z,39.57
2017-05-31T09:16:57.213Z,39.57
2017-05-31T09:17:57.241Z,39.57
2017-05-31T09:18:57.276Z,39.67
2017-05-31T09:19:57.304Z,39.67
2017-05-31T09:20:57.329Z,39.67
2017-05-31T09:21:57.365Z,39.18
2017-05-31T09:22:57.392Z,38.79
2017-05-31T09:23:57.109Z,39.29
2017-05-31T09:24:57.456Z,39
2017-05-31T09:25:57.480Z,38.91
2017-05-31T09:26:57.525Z,39.08
2017-05-31T09:27:57.536Z,39
2017-05-31T09:28:57.575Z,39.1
2017-05-31T09:29:57.603Z,39.29
2017-05-31T09:30:57.637Z,39.1
2017-05-31T09:31:57.665Z,39.49
2017-05-31T09:32:57.698Z,39.29
2017-05-31T09:33:57.727Z,39.1
2017-05-31T09:34:57.750Z,39.2
2017-05-31T09:35:57.488Z,39.2
2017-05-31T09:36:57.496Z,39.2
2017-05-31T09:37:57.845Z,39.2
2017-05-31T09:38:57.882Z,38.71
2017-05-31T09:39:57.902Z,38.91
2017-05-31T09:40:57.936Z,38.91
2017-05-31T09:41:57.969Z,39.1
2017-05-31T09:42:57.994Z,38.91
2017-05-31T09:43:58.030Z,39.69
2017-05-31T09:44:57.747Z,39.59
2017-05-31T09:45:58.082Z,38.81
2017-05-31T09:46:57.808Z,38.71
2017-05-31T09:47:57.837Z,38.81
2017-05-31T09:48:58.179Z,38.32
2017-05-31T09:49:57.895Z,38.13
2017-05-31T09:50:58.241Z,38.13
2017-05-31T09:51:58.273Z,38.52
2017-05-31T09:52:58.302Z,38.71
2017-05-31T09:53:58.019Z,38.71
2017-05-31T09:54:58.364Z,39.49
2017-05-31T09:55:58.393Z,38.81
2017-05-31T09:56:58.417Z,38.32
2017-05-31T09:57:58.457Z,38.23
2017-05-31T09:58:58.478Z,38.32
2017-05-31T09:59:58.199Z,38.23
2017-05-31T10:00:58.545Z,38.71
2017-05-31T10:01:58.572Z,38.23
2017-05-31T10:02:58.601Z,38.81
2017-05-31T10:03:58.630Z,39.1
2017-05-31T10:04:58.662Z,38.91
2017-05-31T10:05:58.698Z,38.91
2017-05-31T10:06:58.735Z,38.81
2017-05-31T10:07:58.755Z,39.1
2017-05-31T10:08:58.476Z,39.29
2017-05-31T10:09:58.815Z,39.1
2017-05-31T10:10:58.533Z,39.2
2017-05-31T10:11:58.877Z,39.1
2017-05-31T10:12:58.593Z,39.1
2017-05-31T10:13:58.939Z,39.1
2017-05-31T10:14:58.966Z,38.32
2017-05-31T10:15:58.999Z,38.62
2017-05-31T10:16:59.029Z,39.2
2017-05-31T10:17:59.062Z,39.29
2017-05-31T10:18:58.779Z,38.91
2017-05-31T10:19:59.116Z,39.1
2017-05-31T10:20:59.148Z,38.91
2017-05-31T10:21:59.181Z,39.1
2017-05-31T10:22:59.211Z,39.29
2017-05-31T10:23:58.930Z,39.1
2017-05-31T10:24:59.275Z,38.71
2017-05-31T10:25:59.304Z,38.32
2017-05-31T10:26:59.333Z,38.23
2017-05-31T10:27:59.367Z,38.03
2017-05-31T10:28:59.397Z,38.32
2017-05-31T10:29:59.424Z,38.44
2017-05-31T10:30:59.144Z,38.44
2017-05-31T10:31:59.486Z,38.42
2017-05-31T10:32:59.519Z,38.15
2017-05-31T10:33:59.542Z,38.32
2017-05-31T10:34:59.578Z,38.05
2017-05-31T10:35:59.808Z,38.54
2017-05-31T10:36:59.638Z,38.05
2017-05-31T10:37:59.671Z,38.34
2017-05-31T10:38:59.696Z,37.85
2017-05-31T10:39:59.733Z,38.05
2017-05-31T10:40:59.955Z,37.95
2017-05-31T10:41:59.788Z,37.85
2017-05-31T10:42:59.508Z,37.76
2017-05-31T10:43:59.847Z,37.76
2017-05-31T10:44:59.880Z,37.66
2017-05-31T10:46:00.117Z,37.66
2017-05-31T10:46:59.942Z,37.66
2017-05-31T10:47:59.662Z,37.85
2017-05-31T10:49:00.003Z,37.95
2017-05-31T10:50:00.036Z,37.85
2017-05-31T10:51:00.266Z,37.76
2017-05-31T10:52:00.089Z,37.37
2017-05-31T10:52:59.814Z,37.16
2017-05-31T10:54:00.155Z,37.46
2017-05-31T10:55:00.189Z,37.46
2017-05-31T10:56:00.415Z,37.46
2017-05-31T10:57:00.250Z,37.56
2017-05-31T10:57:59.966Z,37.66
2017-05-31T10:59:00.308Z,37.37
2017-05-31T11:00:00.339Z,37.76
2017-05-31T11:01:00.575Z,37.56
2017-05-31T11:02:00.402Z,37.66
2017-05-31T11:03:00.118Z,37.85
2017-05-31T11:04:00.151Z,37.56
2017-05-31T11:05:00.174Z,37.85
2017-05-31T11:06:00.416Z,37.66
2017-05-31T11:07:00.549Z,37.76
2017-05-31T11:08:00.579Z,37.85
2017-05-31T11:09:00.616Z,38.05
2017-05-31T11:10:00.644Z,37.27
2017-05-31T11:11:00.878Z,37.56
2017-05-31T11:12:00.707Z,37.56
2017-05-31T11:13:00.743Z,37.56
2017-05-31T11:14:00.759Z,37.08
2017-05-31T11:15:00.803Z,36.88
2017-05-31T11:16:01.024Z,36.79
2017-05-31T11:17:00.550Z,36.4
2017-05-31T11:18:00.887Z,36.49
2017-05-31T11:19:00.923Z,36.79
2017-05-31T11:20:00.945Z,36.49
2017-05-31T11:21:01.234Z,36.2
2017-05-31T11:22:00.696Z,36.2
2017-05-31T11:23:01.043Z,36
2017-05-31T11:24:01.075Z,36.1
2017-05-31T11:25:01.105Z,35.91
2017-05-31T11:26:01.333Z,36
2017-05-31T11:27:00.854Z,36.1
2017-05-31T11:28:01.199Z,35.71
2017-05-31T11:29:01.229Z,36.2
2017-05-31T11:30:01.262Z,36.4
2017-05-31T11:31:01.490Z,36.1
2017-05-31T11:32:01.322Z,36.1
2017-05-31T11:33:01.355Z,36
2017-05-31T11:34:01.067Z,36
2017-05-31T11:35:01.413Z,36
2017-05-31T11:36:01.646Z,36.1
2017-05-31T11:37:01.470Z,36.1
2017-05-31T11:38:01.507Z,36
2017-05-31T11:39:01.540Z,36
2017-05-31T11:40:01.556Z,36.1
2017-05-31T11:41:01.806Z,35.91
2017-05-31T11:42:01.630Z,35.81
2017-05-31T11:43:01.662Z,36
2017-05-31T11:44:01.699Z,35.81
2017-05-31T11:45:01.728Z,36.2
2017-05-31T11:46:02.010Z,35.42
2017-05-31T11:47:01.783Z,35.61
2017-05-31T11:48:01.820Z,35.52
2017-05-31T11:49:01.851Z,35.33
2017-05-31T11:50:01.880Z,35.63
2017-05-31T11:51:02.116Z,35.44
2017-05-31T11:52:01.630Z,35.34
2017-05-31T11:53:01.981Z,36.22
2017-05-31T11:54:02.004Z,35.34
2017-05-31T11:55:02.040Z,35.34
2017-05-31T11:56:01.957Z,35.34
2017-05-31T11:57:02.107Z,35.25
2017-05-31T11:58:02.139Z,35.25
2017-05-31T11:59:02.172Z,35.06
2017-05-31T12:00:01.895Z,35.26
2017-05-31T12:01:02.432Z,35.36
2017-05-31T12:02:02.271Z,35.46
2017-05-31T12:03:02.299Z,34.89
2017-05-31T12:04:02.019Z,34.69
2017-05-31T12:05:02.069Z,34.69
2017-05-31T12:06:02.600Z,34.59
2017-05-31T12:07:02.118Z,34.32
2017-05-31T12:08:02.468Z,34.14
2017-05-31T12:09:02.500Z,33.46
2017-05-31T12:10:02.532Z,33.07
2017-05-31T12:11:02.769Z,32.5
2017-05-31T12:12:02.603Z,32.5
2017-05-31T12:13:02.636Z,32.62
2017-05-31T12:14:02.668Z,32.03
2017-05-31T12:15:02.709Z,31.45
2017-05-31T12:16:02.933Z,31.07
2017-05-31T12:17:02.774Z,30.87
2017-05-31T12:18:02.809Z,30.98
2017-05-31T12:19:02.844Z,30.4
2017-05-31T12:20:02.872Z,30.1
2017-05-31T12:21:03.365Z,29.83
2017-05-31T12:22:02.637Z,29.73
2017-05-31T12:23:02.977Z,29.64
2017-05-31T12:24:02.716Z,29.16
2017-05-31T12:25:03.052Z,28.86
2017-05-31T12:26:03.282Z,29.07
2017-05-31T12:27:02.814Z,29.17
2017-05-31T12:28:03.155Z,28.49
2017-05-31T12:29:03.192Z,28.59
2017-05-31T12:30:03.225Z,28.59
2017-05-31T12:31:03.513Z,28.79
2017-05-31T12:32:03.300Z,28.41
2017-05-31T12:33:03.336Z,28.12
2017-05-31T12:34:03.366Z,27.73
2017-05-31T12:35:03.404Z,27.92
2017-05-31T12:36:03.638Z,28.03
2017-05-31T12:37:03.475Z,27.64
2017-05-31T12:38:03.513Z,27.64
2017-05-31T12:39:03.551Z,27.64
2017-05-31T12:40:03.584Z,27.45
2017-05-31T12:41:03.870Z,27.56
2017-05-31T12:42:03.655Z,27.46
2017-05-31T12:43:03.689Z,27.17
2017-05-31T12:44:03.724Z,26.97
2017-05-31T12:45:03.762Z,26.58
2017-05-31T12:46:03.742Z,26.58
2017-05-31T12:47:03.834Z,26.58
2017-05-31T12:48:03.868Z,26.58
2017-05-31T12:49:03.901Z,26.28
2017-05-31T12:50:03.945Z,26.29
2017-05-31T12:51:04.178Z,26.18
2017-05-31T12:52:04.010Z,25.99
2017-05-31T12:53:03.731Z,25.81
2017-05-31T12:54:04.085Z,25.9
2017-05-31T12:55:04.118Z,25.81
2017-05-31T12:56:03.845Z,25.7
2017-05-31T12:57:04.195Z,25.7
2017-05-31T12:58:04.236Z,25.7